Time;durP1;ratioP1;P1;durP2;ratioP2;P2;SDS_P1;SDS_P2;PMS_P1;PMS_P2;Temp;Humidity;BMP_temperature;BMP_pressure;BME280_temperature;BME280_humidity;BME280_pressure;Samples;Min_cycle;Max_cycle;Signal;HPM_P1;HPM_P2
2024/02/16 00:02:06;;;;;;;24.63;20.90;;;;;;;;;;6217077;23;20169;-79
2024/02/16 00:04:33;;;;;;;23.97;20.53;;;;;;;;;;6242429;23;20192;-78
2024/02/16 00:07:00;;;;;;;26.07;21.20;;;;;;;;;;6246776;23;20183;-78
2024/02/16 00:09:28;;;;;;;23.57;20.93;;;;;;;;;;6246837;23;20180;-78
2024/02/16 00:11:54;;;;;;;23.57;20.43;;;;;;;;;;6246186;23;20211;-77
2024/02/16 00:14:23;;;;;;;22.73;20.17;;;;;;;;;;6246779;23;20169;-78
2024/02/16 00:17:03;;;;;;;;;;;;;;;;;;;;;
2024/02/16 00:19:33;;;;;;;26.23;21.20;;;;;;;;;;6246544;23;20145;-78
2024/02/16 00:22:00;;;;;;;24.53;21.03;;;;;;;;;;6219757;23;20165;-77
2024/02/16 00:24:32;;;;;;;23.23;20.73;;;;;;;;;;6246581;23;20146;-77
2024/02/16 00:26:59;;;;;;;23.20;20.70;;;;;;;;;;6246891;23;20161;-80
2024/02/16 00:29:31;;;;;;;24.67;21.20;;;;;;;;;;6245834;23;20222;-77
2024/02/16 00:32:05;;;;;;;24.43;21.00;;;;;;;;;;6219829;23;20616;-78
2024/02/16 00:34:38;;;;;;;24.60;21.53;;;;;;;;;;6245981;23;20153;-78
2024/02/16 00:37:09;;;;;;;23.20;20.70;;;;;;;;;;6246615;23;20149;-78
2024/02/16 00:39:40;;;;;;;23.53;20.87;;;;;;;;;;6246490;23;20240;-79
2024/02/16 00:42:07;;;;;;;26.47;22.07;;;;;;;;;;6245200;23;20219;-78
2024/02/16 00:44:36;;;;;;;24.53;20.80;;;;;;;;;;6246366;23;20211;-79
2024/02/16 00:47:06;;;;;;;23.43;20.93;;;;;;;;;;6219579;23;20156;-79
2024/02/16 00:49:33;;;;;;;24.13;20.63;;;;;;;;;;6246111;23;20165;-79
2024/02/16 00:52:04;;;;;;;26.50;20.60;;;;;;;;;;6246301;23;20188;-78
2024/02/16 00:54:36;;;;;;;22.23;19.83;;;;;;;;;;6246308;23;20145;-78
2024/02/16 00:57:05;;;;;;;23.87;20.90;;;;;;;;;;6245990;23;20169;-78
2024/02/16 00:59:32;;;;;;;23.03;19.93;;;;;;;;;;6219923;23;20239;-79
2024/02/16 01:02:06;;;;;;;24.30;20.97;;;;;;;;;;6246157;23;20173;-78
2024/02/16 01:04:33;;;;;;;23.60;20.07;;;;;;;;;;6219290;23;20232;-78
2024/02/16 01:07:08;;;;;;;22.87;20.07;;;;;;;;;;6246079;23;20161;-78
2024/02/16 01:09:36;;;;;;;24.30;19.83;;;;;;;;;;6219234;23;20197;-78
2024/02/16 01:12:05;;;;;;;22.87;20.43;;;;;;;;;;6246062;23;20164;-78
2024/02/16 01:14:33;;;;;;;24.63;20.43;;;;;;;;;;6246317;23;20161;-78
2024/02/16 01:17:00;;;;;;;22.47;19.33;;;;;;;;;;6246259;23;20160;-78
2024/02/16 01:19:27;;;;;;;23.27;20.80;;;;;;;;;;6245917;23;20196;-78
2024/02/16 01:21:57;;;;;;;23.73;20.83;;;;;;;;;;6246017;23;20157;-78
2024/02/16 01:24:24;;;;;;;23.37;20.97;;;;;;;;;;6245598;23;20235;-78
2024/02/16 01:26:51;;;;;;;24.03;21.33;;;;;;;;;;6219432;23;20169;-78
2024/02/16 01:29:17;;;;;;;23.37;20.03;;;;;;;;;;6245941;23;20161;-78
2024/02/16 01:31:44;;;;;;;23.97;21.37;;;;;;;;;;6246064;23;20245;-78
2024/02/16 01:34:11;;;;;;;27.33;21.87;;;;;;;;;;6244503;23;20169;-78
2024/02/16 01:36:38;;;;;;;24.33;20.97;;;;;;;;;;6219675;23;20198;-78
2024/02/16 01:39:06;;;;;;;22.47;20.17;;;;;;;;;;6219515;23;20181;-79
2024/02/16 01:41:50;;;;;;;24.57;21.43;;;;;;;;;;6245713;23;20154;-78
2024/02/16 01:44:17;;;;;;;23.97;20.90;;;;;;;;;;6246040;23;20183;-78
2024/02/16 01:46:45;;;;;;;23.80;21.30;;;;;;;;;;6219690;23;20172;-78
2024/02/16 01:49:13;;;;;;;22.23;19.93;;;;;;;;;;6219321;23;20231;-78
2024/02/16 01:51:44;;;;;;;23.93;21.30;;;;;;;;;;6245996;23;20604;-78
2024/02/16 01:54:12;;;;;;;24.40;21.63;;;;;;;;;;6219887;23;20157;-78
2024/02/16 01:56:39;;;;;;;25.87;22.33;;;;;;;;;;6246114;23;20164;-78
2024/02/16 01:59:11;;;;;;;24.57;21.83;;;;;;;;;;6246152;23;20210;-78
2024/02/16 02:01:41;;;;;;;23.53;21.00;;;;;;;;;;6246735;23;20149;-78
2024/02/16 02:04:11;;;;;;;23.57;21.07;;;;;;;;;;6219074;23;20196;-77
2024/02/16 02:06:42;;;;;;;25.77;22.13;;;;;;;;;;6246130;23;20167;-80
2024/02/16 02:09:10;;;;;;;24.87;21.13;;;;;;;;;;6246482;23;20216;-80
2024/02/16 02:11:37;;;;;;;23.60;20.60;;;;;;;;;;6219580;23;20176;-77
2024/02/16 02:14:04;;;;;;;25.23;20.77;;;;;;;;;;6246004;23;20197;-78
2024/02/16 02:16:32;;;;;;;23.27;20.77;;;;;;;;;;6246792;23;20161;-79
2024/02/16 02:19:13;;;;;;;22.47;20.07;;;;;;;;;;6246839;23;20196;-78
2024/02/16 02:21:40;;;;;;;24.50;21.00;;;;;;;;;;6220145;23;20261;-80
2024/02/16 02:24:08;;;;;;;23.50;20.10;;;;;;;;;;6247020;23;20156;-79
2024/02/16 02:26:36;;;;;;;24.87;20.80;;;;;;;;;;6246870;23;20158;-80
2024/02/16 02:29:05;;;;;;;25.03;19.60;;;;;;;;;;6246730;23;20164;-79
2024/02/16 02:31:32;;;;;;;22.67;20.10;;;;;;;;;;6220294;23;20165;-79
2024/02/16 02:33:59;;;;;;;22.57;20.07;;;;;;;;;;6219631;23;20508;-79
2024/02/16 02:36:29;;;;;;;23.17;20.67;;;;;;;;;;6247612;23;20161;-79
2024/02/16 02:38:58;;;;;;;23.80;20.77;;;;;;;;;;6248162;23;20185;-80
2024/02/16 02:41:26;;;;;;;22.40;20.00;;;;;;;;;;6221625;23;20500;-79
2024/02/16 02:43:54;;;;;;;22.33;19.93;;;;;;;;;;6196651;23;20219;-80
2024/02/16 02:46:27;;;;;;;24.90;20.83;;;;;;;;;;6248060;23;20149;-80
2024/02/16 02:48:54;;;;;;;23.40;20.20;;;;;;;;;;6248112;23;20220;-80
2024/02/16 02:51:24;;;;;;;21.40;19.10;;;;;;;;;;6248272;23;20266;-80
2024/02/16 02:53:52;;;;;;;21.67;19.37;;;;;;;;;;6248092;23;20168;-79
2024/02/16 02:56:18;;;;;;;23.87;19.63;;;;;;;;;;6247882;23;20171;-79
2024/02/16 02:58:47;;;;;;;21.67;19.33;;;;;;;;;;6221098;23;20235;-79
2024/02/16 03:01:20;;;;;;;21.57;18.63;;;;;;;;;;6248156;23;20233;-79
2024/02/16 03:03:47;;;;;;;21.73;19.23;;;;;;;;;;6247597;23;20208;-79
2024/02/16 03:06:17;;;;;;;21.40;19.10;;;;;;;;;;6247731;23;20172;-79
2024/02/16 03:08:45;;;;;;;21.60;19.30;;;;;;;;;;6247251;23;20247;-79
2024/02/16 03:11:11;;;;;;;20.80;18.43;;;;;;;;;;6219877;23;20161;-79
2024/02/16 03:13:42;;;;;;;22.87;19.50;;;;;;;;;;6247736;23;20605;-80
2024/02/16 03:16:13;;;;;;;23.57;19.37;;;;;;;;;;6247766;23;20211;-80
2024/02/16 03:18:39;;;;;;;21.50;19.20;;;;;;;;;;6247340;23;20188;-80
2024/02/16 03:21:07;;;;;;;22.57;19.80;;;;;;;;;;6247786;23;20157;-79
2024/02/16 03:23:39;;;;;;;22.50;20.10;;;;;;;;;;6222502;23;20196;-79
2024/02/16 03:26:15;;;;;;;24.63;20.10;;;;;;;;;;6247750;23;20157;-80
2024/02/16 03:28:50;;;;;;;22.27;19.93;;;;;;;;;;6247926;23;20211;-80
2024/02/16 03:31:23;;;;;;;23.23;20.20;;;;;;;;;;6220881;23;20175;-79
2024/02/16 03:33:51;;;;;;;22.07;19.40;;;;;;;;;;6247334;23;20169;-79
2024/02/16 03:36:25;;;;;;;22.83;19.60;;;;;;;;;;6247647;23;20172;-79
2024/02/16 03:38:54;;;;;;;23.23;19.53;;;;;;;;;;6247114;23;20185;-80
2024/02/16 03:41:21;;;;;;;22.70;20.23;;;;;;;;;;6220453;23;20207;-80
2024/02/16 03:43:48;;;;;;;23.30;19.90;;;;;;;;;;6247822;23;20215;-80
2024/02/16 03:46:15;;;;;;;22.27;19.40;;;;;;;;;;6220270;23;20169;-80
2024/02/16 03:48:42;;;;;;;22.23;19.83;;;;;;;;;;6246843;23;20168;-80
2024/02/16 03:51:12;;;;;;;21.93;19.10;;;;;;;;;;6220829;23;20176;-80
2024/02/16 03:53:42;;;;;;;21.23;18.93;;;;;;;;;;6196021;23;20243;-79
2024/02/16 03:56:09;;;;;;;21.37;18.77;;;;;;;;;;6220677;23;20181;-80
2024/02/16 03:58:38;;;;;;;23.63;20.03;;;;;;;;;;6220796;23;20437;-79
2024/02/16 04:01:06;;;;;;;21.77;18.93;;;;;;;;;;6247275;23;20157;-80
2024/02/16 04:03:33;;;;;;;22.20;19.33;;;;;;;;;;6246393;23;20204;-79
2024/02/16 04:06:01;;;;;;;22.53;18.93;;;;;;;;;;6247057;23;20646;-80
2024/02/16 04:08:31;;;;;;;22.27;19.87;;;;;;;;;;6247540;23;20192;-80
2024/02/16 04:10:57;;;;;;;22.00;18.90;;;;;;;;;;6220606;23;20173;-80
2024/02/16 04:13:25;;;;;;;23.00;20.07;;;;;;;;;;6247398;23;20165;-79
2024/02/16 04:15:51;;;;;;;23.40;19.43;;;;;;;;;;6220646;23;20188;-80
2024/02/16 04:18:23;;;;;;;24.23;19.50;;;;;;;;;;6220681;23;20197;-80
2024/02/16 04:20:53;;;;;;;21.60;19.20;;;;;;;;;;6247464;23;20161;-80
2024/02/16 04:23:19;;;;;;;22.47;18.97;;;;;;;;;;6247575;23;20161;-80
2024/02/16 04:25:46;;;;;;;22.40;19.30;;;;;;;;;;6247020;23;20348;-80
2024/02/16 04:28:18;;;;;;;22.33;19.13;;;;;;;;;;6247515;23;20228;-80
2024/02/16 04:30:45;;;;;;;21.80;19.50;;;;;;;;;;6220835;23;20204;-80
2024/02/16 04:33:11;;;;;;;22.33;19.30;;;;;;;;;;6247264;23;20161;-80
2024/02/16 04:35:38;;;;;;;24.03;19.07;;;;;;;;;;6247237;23;20189;-80
2024/02/16 04:38:10;;;;;;;22.27;19.17;;;;;;;;;;6246903;23;20169;-80
2024/02/16 04:40:37;;;;;;;22.90;19.73;;;;;;;;;;6220143;23;20226;-80
2024/02/16 04:43:04;;;;;;;23.77;18.60;;;;;;;;;;6246801;23;20619;-80
2024/02/16 04:45:43;;;;;;;22.50;19.47;;;;;;;;;;6247120;23;20160;-80
2024/02/16 04:48:12;;;;;;;22.80;19.60;;;;;;;;;;6195838;23;20236;-80
2024/02/16 04:50:41;;;;;;;22.10;19.50;;;;;;;;;;6247139;23;20235;-80
2024/02/16 04:53:10;;;;;;;22.77;19.77;;;;;;;;;;6247224;23;20164;-80
2024/02/16 04:55:37;;;;;;;22.40;18.90;;;;;;;;;;6247311;23;20165;-80
2024/02/16 04:58:09;;;;;;;22.30;19.23;;;;;;;;;;6246774;23;20157;-80
2024/02/16 05:00:39;;;;;;;22.97;19.53;;;;;;;;;;6246975;23;20153;-80
2024/02/16 05:03:06;;;;;;;21.67;19.07;;;;;;;;;;6246353;23;20212;-80
2024/02/16 05:05:36;;;;;;;23.43;18.77;;;;;;;;;;6246603;23;20223;-79
2024/02/16 05:08:02;;;;;;;25.20;19.90;;;;;;;;;;6219618;23;20172;-80
2024/02/16 05:10:29;;;;;;;22.00;19.67;;;;;;;;;;6220247;23;20268;-80
2024/02/16 05:12:59;;;;;;;21.30;18.40;;;;;;;;;;6246606;23;20164;-80
2024/02/16 05:15:30;;;;;;;22.57;19.30;;;;;;;;;;6246686;23;20142;-80
2024/02/16 05:17:57;;;;;;;21.17;18.33;;;;;;;;;;6220195;23;20161;-80
2024/02/16 05:20:28;;;;;;;21.90;18.83;;;;;;;;;;6220765;23;20177;-80
2024/02/16 05:22:54;;;;;;;21.73;18.43;;;;;;;;;;6220076;23;20616;-80
2024/02/16 05:25:24;;;;;;;21.33;18.43;;;;;;;;;;6219666;23;20175;-79
2024/02/16 05:27:52;;;;;;;22.73;18.70;;;;;;;;;;6246385;23;20659;-79
2024/02/16 05:30:20;;;;;;;21.17;18.70;;;;;;;;;;6246776;23;20618;-80
2024/02/16 05:32:53;;;;;;;23.87;18.53;;;;;;;;;;6219534;23;20200;-80
2024/02/16 05:35:20;;;;;;;20.33;17.67;;;;;;;;;;6246466;23;20173;-80
2024/02/16 05:37:55;;;;;;;19.67;17.57;;;;;;;;;;6246562;23;20634;-80
2024/02/16 05:40:27;;;;;;;21.37;18.37;;;;;;;;;;6246722;23;20164;-80
2024/02/16 05:43:00;;;;;;;19.90;17.60;;;;;;;;;;6247067;23;20294;-79
2024/02/16 05:45:27;;;;;;;21.23;18.30;;;;;;;;;;6246879;23;20248;-79
2024/02/16 05:47:54;;;;;;;20.00;17.23;;;;;;;;;;6246359;23;20157;-80
2024/02/16 05:50:22;;;;;;;20.57;17.83;;;;;;;;;;6194878;23;20208;-80
2024/02/16 05:52:52;;;;;;;21.23;17.53;;;;;;;;;;6219969;23;20177;-79
2024/02/16 05:55:24;;;;;;;21.33;18.13;;;;;;;;;;6246550;23;20165;-79
2024/02/16 05:57:52;;;;;;;22.77;17.53;;;;;;;;;;6195408;23;20175;-80
2024/02/16 06:00:21;;;;;;;19.33;17.23;;;;;;;;;;6219442;23;20173;-79
2024/02/16 06:02:51;;;;;;;21.07;17.77;;;;;;;;;;6219836;23;20239;-79
2024/02/16 06:05:21;;;;;;;21.80;18.20;;;;;;;;;;6246103;23;20175;-79
2024/02/16 06:07:58;;;;;;;19.83;17.23;;;;;;;;;;6246646;23;20164;-79
2024/02/16 06:10:27;;;;;;;19.97;17.33;;;;;;;;;;6246407;23;20169;-80
2024/02/16 06:12:53;;;;;;;21.73;17.97;;;;;;;;;;6222277;23;20172;-81
2024/02/16 06:15:20;;;;;;;20.20;17.97;;;;;;;;;;6250461;23;20169;-82
2024/02/16 06:17:48;;;;;;;22.73;17.73;;;;;;;;;;6224271;23;20634;-81
2024/02/16 06:20:17;;;;;;;22.57;17.97;;;;;;;;;;6198082;23;20275;-76
2024/02/16 06:22:47;;;;;;;22.50;18.87;;;;;;;;;;6247588;23;20153;-76
2024/02/16 06:25:15;;;;;;;22.13;18.57;;;;;;;;;;6247346;23;20176;-77
2024/02/16 06:27:43;;;;;;;20.20;17.10;;;;;;;;;;6247441;23;20662;-76
2024/02/16 06:30:12;;;;;;;23.47;18.50;;;;;;;;;;6247468;23;20211;-75
2024/02/16 06:32:40;;;;;;;21.03;17.53;;;;;;;;;;6247714;23;20169;-77
2024/02/16 06:35:07;;;;;;;23.20;19.00;;;;;;;;;;6247371;23;20159;-77
2024/02/16 06:37:37;;;;;;;21.90;18.37;;;;;;;;;;6247647;23;20219;-77
2024/02/16 06:40:04;;;;;;;22.47;17.53;;;;;;;;;;6247575;23;20179;-77
2024/02/16 06:42:31;;;;;;;20.63;17.93;;;;;;;;;;6247396;23;20161;-76
2024/02/16 06:44:58;;;;;;;20.63;17.80;;;;;;;;;;6247371;23;20165;-76
2024/02/16 06:47:25;;;;;;;19.37;17.30;;;;;;;;;;6247179;23;20232;-76
2024/02/16 06:49:53;;;;;;;19.60;17.37;;;;;;;;;;6247566;23;20244;-77
2024/02/16 06:52:20;;;;;;;21.10;17.30;;;;;;;;;;6247953;23;20207;-77
2024/02/16 06:54:50;;;;;;;20.77;17.03;;;;;;;;;;6247216;23;20248;-75
2024/02/16 06:57:18;;;;;;;20.87;17.40;;;;;;;;;;6247263;23;20244;-76
2024/02/16 06:59:47;;;;;;;20.27;16.67;;;;;;;;;;6247165;23;20711;-75
2024/02/16 07:02:14;;;;;;;19.40;16.60;;;;;;;;;;6247021;23;20161;-73
2024/02/16 07:04:41;;;;;;;18.87;16.87;;;;;;;;;;6220728;23;20204;-74
2024/02/16 07:07:08;;;;;;;18.27;16.20;;;;;;;;;;6216576;23;20181;-77
2024/02/16 07:09:39;;;;;;;19.43;16.47;;;;;;;;;;6216460;23;20193;-77
2024/02/16 07:12:09;;;;;;;20.03;17.20;;;;;;;;;;6216380;23;20162;-77
2024/02/16 07:14:37;;;;;;;21.43;15.87;;;;;;;;;;6216475;23;20503;-76
2024/02/16 07:17:07;;;;;;;20.40;16.07;;;;;;;;;;6216288;23;20220;-74
2024/02/16 07:19:34;;;;;;;21.90;16.77;;;;;;;;;;6215868;23;20181;-74
2024/02/16 07:22:00;;;;;;;21.00;16.77;;;;;;;;;;6216248;23;20162;-74
2024/02/16 07:24:27;;;;;;;17.87;15.97;;;;;;;;;;6215705;23;20204;-75
2024/02/16 07:26:54;;;;;;;18.33;16.23;;;;;;;;;;6216108;23;20165;-76
2024/02/16 07:29:24;;;;;;;18.17;15.43;;;;;;;;;;6216265;23;20428;-75
2024/02/16 07:31:52;;;;;;;16.70;14.60;;;;;;;;;;6215934;23;20168;-75
2024/02/16 07:34:19;;;;;;;18.73;15.23;;;;;;;;;;6215944;23;20166;-74
2024/02/16 07:36:47;;;;;;;16.03;14.13;;;;;;;;;;6216054;23;20168;-74
2024/02/16 07:39:14;;;;;;;17.57;15.67;;;;;;;;;;6215816;23;20192;-74
2024/02/16 07:41:41;;;;;;;17.23;15.40;;;;;;;;;;6215939;23;20647;-74
2024/02/16 07:44:10;;;;;;;16.63;14.83;;;;;;;;;;6215785;23;20236;-74
2024/02/16 07:46:45;;;;;;;16.03;13.90;;;;;;;;;;6215764;23;20166;-74
2024/02/16 07:49:19;;;;;;;15.27;13.67;;;;;;;;;;6216626;23;20169;-80
2024/02/16 07:51:46;;;;;;;15.93;14.23;;;;;;;;;;6198398;23;20176;-82
2024/02/16 07:54:14;;;;;;;14.73;13.20;;;;;;;;;;6175486;23;20174;-80
2024/02/16 07:56:44;;;;;;;13.67;12.33;;;;;;;;;;6204569;23;20604;-81
2024/02/16 07:59:18;;;;;;;15.50;13.93;;;;;;;;;;6204950;23;20208;-80
2024/02/16 08:01:46;;;;;;;16.50;13.43;;;;;;;;;;6204707;23;20158;-81
2024/02/16 08:04:15;;;;;;;14.93;13.33;;;;;;;;;;6195025;23;20232;-79
2024/02/16 08:06:54;;;;;;;13.57;12.10;;;;;;;;;;6246249;23;20193;-78
2024/02/16 08:09:21;;;;;;;14.20;11.17;;;;;;;;;;6247138;23;20260;-78
2024/02/16 08:11:48;;;;;;;12.90;11.53;;;;;;;;;;6246819;23;20164;-78
2024/02/16 08:14:15;;;;;;;15.23;11.50;;;;;;;;;;6220154;23;20169;-78
2024/02/16 08:16:45;;;;;;;19.47;11.00;;;;;;;;;;6246703;23;20180;-78
2024/02/16 08:19:13;;;;;;;6.20;5.60;;;;;;;;;;6220587;23;20164;-78
2024/02/16 08:21:40;;;;;;;5.87;5.27;;;;;;;;;;6220486;23;20256;-78
2024/02/16 08:24:07;;;;;;;7.00;6.20;;;;;;;;;;6246771;23;20161;-79
2024/02/16 08:26:35;;;;;;;5.77;5.10;;;;;;;;;;6220301;23;20157;-78
2024/02/16 08:29:04;;;;;;;5.93;5.10;;;;;;;;;;6246889;23;20175;-78
2024/02/16 08:31:31;;;;;;;5.60;4.57;;;;;;;;;;6234046;23;20223;-78
2024/02/16 08:33:59;;;;;;;4.53;4.13;;;;;;;;;;6219653;23;20176;-79
2024/02/16 08:36:30;;;;;;;5.80;4.53;;;;;;;;;;6246603;23;20200;-78
2024/02/16 08:38:58;;;;;;;4.13;3.73;;;;;;;;;;6246509;23;20169;-79
2024/02/16 08:41:26;;;;;;;6.50;4.33;;;;;;;;;;6246504;23;20200;-78
2024/02/16 08:43:53;;;;;;;5.27;3.90;;;;;;;;;;6219800;23;20165;-79
2024/02/16 08:46:22;;;;;;;4.27;3.70;;;;;;;;;;6219613;23;20190;-78
2024/02/16 08:48:49;;;;;;;3.77;3.40;;;;;;;;;;6246423;23;20215;-79
2024/02/16 08:51:16;;;;;;;4.00;3.50;;;;;;;;;;6191292;23;20173;-78
2024/02/16 08:53:43;;;;;;;5.93;4.30;;;;;;;;;;6219321;23;20193;-78
2024/02/16 08:56:12;;;;;;;5.17;3.73;;;;;;;;;;6246729;23;20165;-78
2024/02/16 08:58:39;;;;;;;4.50;3.57;;;;;;;;;;6246179;23;20215;-78
2024/02/16 09:01:11;;;;;;;3.70;3.40;;;;;;;;;;6246114;23;20192;-78
2024/02/16 09:03:39;;;;;;;4.23;3.60;;;;;;;;;;6246134;22;20189;-78
2024/02/16 09:06:09;;;;;;;5.37;3.90;;;;;;;;;;6219359;23;20165;-78
2024/02/16 09:08:36;;;;;;;4.00;3.60;;;;;;;;;;6245877;23;20193;-78
2024/02/16 09:11:05;;;;;;;6.57;3.63;;;;;;;;;;6245655;23;20160;-79
2024/02/16 09:13:32;;;;;;;4.57;3.60;;;;;;;;;;6245244;23;20248;-78
2024/02/16 09:16:04;;;;;;;3.90;3.60;;;;;;;;;;6246075;23;20169;-78
2024/02/16 09:18:33;;;;;;;4.23;3.33;;;;;;;;;;6245635;23;20153;-79
2024/02/16 09:21:06;;;;;;;3.50;3.20;;;;;;;;;;6245820;23;20180;-78
2024/02/16 09:23:36;;;;;;;3.33;2.90;;;;;;;;;;6245213;23;20192;-79
2024/02/16 09:26:03;;;;;;;3.50;2.77;;;;;;;;;;6245094;23;20172;-79
2024/02/16 09:28:30;;;;;;;4.03;3.07;;;;;;;;;;6245416;23;20182;-78
2024/02/16 09:31:03;;;;;;;3.13;2.77;;;;;;;;;;6245398;23;20151;-78
2024/02/16 09:33:29;;;;;;;4.00;3.20;;;;;;;;;;6218917;23;20171;-78
2024/02/16 09:35:58;;;;;;;3.10;2.80;;;;;;;;;;6219228;23;20165;-80
2024/02/16 09:38:26;;;;;;;2.97;2.67;;;;;;;;;;6244989;23;20157;-78
2024/02/16 09:40:53;;;;;;;3.87;2.70;;;;;;;;;;6244192;23;20185;-78
2024/02/16 09:43:27;;;;;;;3.30;2.73;;;;;;;;;;6243713;23;20166;-79
2024/02/16 09:45:59;;;;;;;5.50;2.87;;;;;;;;;;6246114;23;20158;-79
2024/02/16 09:48:32;;;;;;;4.47;2.70;;;;;;;;;;6221368;23;20169;-78
2024/02/16 09:51:04;;;;;;;4.20;2.20;;;;;;;;;;6247638;23;20231;-78
2024/02/16 09:53:32;;;;;;;3.50;2.73;;;;;;;;;;6247154;23;20612;-78
2024/02/16 09:56:01;;;;;;;2.40;2.20;;;;;;;;;;6221734;23;20612;-79
2024/02/16 09:58:28;;;;;;;2.40;2.20;;;;;;;;;;6248166;23;20173;-79
2024/02/16 10:00:56;;;;;;;2.47;2.23;;;;;;;;;;6247912;23;20190;-78
2024/02/16 10:03:28;;;;;;;2.60;2.10;;;;;;;;;;6247837;22;20197;-78
2024/02/16 10:06:06;;;;;;;2.57;2.20;;;;;;;;;;6248006;23;20558;-78
2024/02/16 10:08:50;;;;;;;2.57;2.30;;;;;;;;;;6248171;23;20624;-78
2024/02/16 10:11:24;;;;;;;4.27;2.13;;;;;;;;;;6248763;23;20156;-78
2024/02/16 10:13:58;;;;;;;3.27;2.20;;;;;;;;;;6249108;23;20146;-79
2024/02/16 10:16:25;;;;;;;4.87;2.30;;;;;;;;;;6248842;23;20163;-78
2024/02/16 10:18:54;;;;;;;3.03;2.00;;;;;;;;;;6248252;23;20669;-80
2024/02/16 10:21:30;;;;;;;2.40;1.83;;;;;;;;;;6221733;23;20195;-78
2024/02/16 10:24:07;;;;;;;2.17;1.97;;;;;;;;;;6248084;23;20193;-78
2024/02/16 10:26:42;;;;;;;4.10;1.90;;;;;;;;;;6221902;23;20244;-80
2024/02/16 10:29:09;;;;;;;2.53;1.80;;;;;;;;;;6248960;23;20162;-80
2024/02/16 10:31:41;;;;;;;2.20;1.90;;;;;;;;;;6248723;23;20164;-78
2024/02/16 10:34:10;;;;;;;2.10;1.70;;;;;;;;;;6248852;23;20167;-78
2024/02/16 10:36:41;;;;;;;2.10;1.90;;;;;;;;;;6249586;23;20153;-80
2024/02/16 10:39:20;;;;;;;2.10;1.90;;;;;;;;;;6250217;23;20173;-80
2024/02/16 10:41:52;;;;;;;1.87;1.77;;;;;;;;;;6250691;23;20215;-80
2024/02/16 10:44:22;;;;;;;3.23;1.80;;;;;;;;;;6224994;23;20159;-80
2024/02/16 10:46:48;;;;;;;2.20;2.00;;;;;;;;;;6250798;23;20187;-80
2024/02/16 10:49:24;;;;;;;3.00;2.00;;;;;;;;;;6251532;23;20199;-80
2024/02/16 10:51:57;;;;;;;2.13;1.80;;;;;;;;;;6251251;23;20163;-80
2024/02/16 10:54:28;;;;;;;2.73;1.90;;;;;;;;;;6252319;23;20512;-80
2024/02/16 10:56:59;;;;;;;2.00;1.87;;;;;;;;;;6226332;23;20153;-81
2024/02/16 10:59:38;;;;;;;1.70;1.60;;;;;;;;;;6220912;23;20252;-80
2024/02/16 11:02:10;;;;;;;3.00;1.60;;;;;;;;;;6226264;23;20165;-80
2024/02/16 11:04:39;;;;;;;2.57;1.67;;;;;;;;;;6254083;22;20196;-80
2024/02/16 11:07:17;;;;;;;2.03;1.70;;;;;;;;;;6227312;23;20181;-80
2024/02/16 11:09:45;;;;;;;3.17;1.80;;;;;;;;;;6202836;23;20196;-80
2024/02/16 11:12:13;;;;;;;1.90;1.70;;;;;;;;;;6226708;23;20674;-80
2024/02/16 11:14:41;;;;;;;2.23;1.73;;;;;;;;;;6226915;23;20193;-80
2024/02/16 11:17:13;;;;;;;2.93;1.80;;;;;;;;;;6253696;23;20161;-80
2024/02/16 11:19:46;;;;;;;3.27;1.73;;;;;;;;;;6226333;23;20188;-80
2024/02/16 11:22:17;;;;;;;2.70;1.90;;;;;;;;;;6226843;23;20219;-81
2024/02/16 11:24:49;;;;;;;2.90;1.90;;;;;;;;;;6229193;23;20151;-81
2024/02/16 11:27:19;;;;;;;2.43;1.80;;;;;;;;;;6254796;23;20177;-80
2024/02/16 11:29:52;;;;;;;1.60;1.47;;;;;;;;;;6254335;23;20184;-80
2024/02/16 11:32:25;;;;;;;1.60;1.30;;;;;;;;;;6203989;23;20164;-80
2024/02/16 11:35:06;;;;;;;1.97;1.63;;;;;;;;;;6254917;23;20176;-81
2024/02/16 11:37:38;;;;;;;1.50;1.40;;;;;;;;;;6199061;23;20170;-81
2024/02/16 11:40:08;;;;;;;1.50;1.40;;;;;;;;;;6228540;23;20171;-80
2024/02/16 11:42:36;;;;;;;1.90;1.60;;;;;;;;;;6216975;23;20149;-81
2024/02/16 11:45:09;;;;;;;2.97;1.90;;;;;;;;;;6200418;23;20168;-81
2024/02/16 11:47:37;;;;;;;1.40;1.17;;;;;;;;;;6227479;23;20169;-80
2024/02/16 11:50:12;;;;;;;1.73;1.57;;;;;;;;;;6254577;23;20584;-80
2024/02/16 11:52:40;;;;;;;1.47;1.37;;;;;;;;;;6229124;23;20196;-80
2024/02/16 11:55:09;;;;;;;2.60;1.60;;;;;;;;;;6227800;23;20196;-80
2024/02/16 11:57:57;;;;;;;2.80;1.40;;;;;;;;;;6232976;23;20248;-80
2024/02/16 12:00:25;;;;;;;1.80;1.40;;;;;;;;;;6227967;23;20192;-81
2024/02/16 12:03:00;;;;;;;1.63;1.40;;;;;;;;;;6253295;22;20166;-80
2024/02/16 12:05:29;;;;;;;1.20;1.10;;;;;;;;;;6227143;23;20169;-80
2024/02/16 12:07:57;;;;;;;1.43;1.33;;;;;;;;;;6250333;23;20165;-81
2024/02/16 12:10:31;;;;;;;2.07;1.30;;;;;;;;;;6249266;23;20165;-80
2024/02/16 12:13:46;;;;;;;1.20;1.10;;;;;;;;;;6239012;23;20592;-81
2024/02/16 12:22:52;;;;;;;3.50;1.70;;;;;;;;;;6228131;23;20169;-80
2024/02/16 12:25:19;;;;;;;1.80;1.40;;;;;;;;;;6250541;23;20236;-81
2024/02/16 12:27:49;;;;;;;1.77;1.67;;;;;;;;;;6252701;23;20157;-81
2024/02/16 12:30:19;;;;;;;2.60;2.00;;;;;;;;;;6224054;23;20185;-80
2024/02/16 12:32:48;;;;;;;3.30;2.00;;;;;;;;;;6225289;23;20240;-80
2024/02/16 12:35:22;;;;;;;2.90;2.43;;;;;;;;;;6255075;23;20216;-80
2024/02/16 12:37:52;;;;;;;2.53;2.33;;;;;;;;;;6253321;23;20177;-80
2024/02/16 12:40:19;;;;;;;2.90;2.27;;;;;;;;;;6225389;23;20169;-80
2024/02/16 12:42:56;;;;;;;2.83;2.20;;;;;;;;;;6252972;23;20184;-81
2024/02/16 12:45:25;;;;;;;2.50;2.30;;;;;;;;;;6227270;23;20156;-81
2024/02/16 12:47:58;;;;;;;2.20;2.00;;;;;;;;;;6256099;23;20145;-81
2024/02/16 12:50:28;;;;;;;2.77;2.10;;;;;;;;;;6202144;23;20165;-81
2024/02/16 12:52:55;;;;;;;2.37;2.03;;;;;;;;;;6256364;23;20211;-81
2024/02/16 12:55:40;;;;;;;2.30;2.00;;;;;;;;;;6229821;23;20162;-81
2024/02/16 12:58:14;;;;;;;2.37;2.17;;;;;;;;;;6256374;23;20228;-81
2024/02/16 13:00:45;;;;;;;2.30;1.90;;;;;;;;;;6228163;23;20188;-81
2024/02/16 13:03:13;;;;;;;1.90;1.80;;;;;;;;;;6227016;23;20208;-81
2024/02/16 13:05:48;;;;;;;2.63;2.00;;;;;;;;;;6252615;23;20169;-81
2024/02/16 13:08:16;;;;;;;3.17;2.20;;;;;;;;;;6202082;23;20219;-81
2024/02/16 13:10:46;;;;;;;3.00;2.20;;;;;;;;;;6253766;23;20179;-81
2024/02/16 13:13:15;;;;;;;2.63;2.13;;;;;;;;;;6203523;23;20199;-81
2024/02/16 13:15:53;;;;;;;3.33;2.30;;;;;;;;;;6254710;23;20169;-81
2024/02/16 13:18:35;;;;;;;2.20;1.90;;;;;;;;;;6251941;23;20190;-81
2024/02/16 13:21:02;;;;;;;2.43;2.20;;;;;;;;;;6253688;23;20188;-81
2024/02/16 13:23:37;;;;;;;4.37;2.40;;;;;;;;;;6255826;23;20145;-81
2024/02/16 13:26:15;;;;;;;3.03;2.10;;;;;;;;;;6258320;23;20228;-81
2024/02/16 13:28:56;;;;;;;2.63;2.27;;;;;;;;;;6207133;23;20169;-81
2024/02/16 13:31:26;;;;;;;2.30;2.10;;;;;;;;;;6228704;23;20168;-81
2024/02/16 13:33:56;;;;;;;2.13;2.03;;;;;;;;;;6255234;23;20169;-81
2024/02/16 13:36:30;;;;;;;3.30;2.60;;;;;;;;;;6254129;23;20200;-81
2024/02/16 13:39:06;;;;;;;2.90;2.40;;;;;;;;;;6255186;23;20156;-81
2024/02/16 13:41:35;;;;;;;4.77;3.40;;;;;;;;;;6254651;23;20250;-81
2024/02/16 13:44:08;;;;;;;5.23;4.40;;;;;;;;;;6256123;23;20181;-80
2024/02/16 13:46:41;;;;;;;3.07;2.77;;;;;;;;;;6255527;23;20549;-80
2024/02/16 13:49:12;;;;;;;2.93;2.63;;;;;;;;;;6228685;23;20164;-81
2024/02/16 13:51:41;;;;;;;4.10;2.57;;;;;;;;;;6253774;23;20588;-81
2024/02/16 13:54:23;;;;;;;3.13;2.50;;;;;;;;;;6254713;23;20160;-81
2024/02/16 14:00:36;;;;;;;4.83;3.27;;;;;;;;;;6254424;23;20626;-80
2024/02/16 14:03:09;;;;;;;5.50;4.20;;;;;;;;;;6228077;22;20166;-81
2024/02/16 14:05:53;;;;;;;5.23;4.20;;;;;;;;;;6231856;23;20212;-80
2024/02/16 14:08:24;;;;;;;2.73;2.33;;;;;;;;;;6203293;23;20173;-81
2024/02/16 14:10:52;;;;;;;2.97;2.17;;;;;;;;;;6228009;23;20189;-80
2024/02/16 14:13:26;;;;;;;2.00;1.90;;;;;;;;;;6228092;23;20157;-80
2024/02/16 14:16:04;;;;;;;3.83;2.17;;;;;;;;;;6253203;23;20149;-81
2024/02/16 14:18:37;;;;;;;3.33;2.10;;;;;;;;;;6231232;23;20233;-81
2024/02/16 14:21:29;;;;;;;2.67;2.00;;;;;;;;;;6254408;23;20200;-79
2024/02/16 14:24:00;;;;;;;3.67;2.17;;;;;;;;;;6250222;23;20614;-79
2024/02/16 14:26:30;;;;;;;2.13;1.93;;;;;;;;;;6249654;23;20161;-80
2024/02/16 14:28:58;;;;;;;3.20;2.50;;;;;;;;;;6197943;23;20161;-80
2024/02/16 14:31:27;;;;;;;2.60;2.10;;;;;;;;;;6250453;23;20168;-78
2024/02/16 14:33:57;;;;;;;3.00;2.30;;;;;;;;;;6225936;23;20200;-80
2024/02/16 14:36:24;;;;;;;2.80;2.40;;;;;;;;;;6225631;23;20612;-80
2024/02/16 14:38:54;;;;;;;3.67;2.37;;;;;;;;;;6251331;23;20161;-79
2024/02/16 14:41:22;;;;;;;2.53;2.20;;;;;;;;;;6223958;23;20192;-78
2024/02/16 14:43:50;;;;;;;2.20;2.00;;;;;;;;;;6250695;23;20215;-78
2024/02/16 14:46:17;;;;;;;2.57;2.30;;;;;;;;;;6250662;23;20169;-78
2024/02/16 14:48:47;;;;;;;3.43;2.30;;;;;;;;;;6224094;23;20176;-79
2024/02/16 14:51:19;;;;;;;2.73;2.00;;;;;;;;;;6251106;23;20200;-77
2024/02/16 14:53:49;;;;;;;2.53;2.33;;;;;;;;;;6225094;23;20188;-79
2024/02/16 14:56:21;;;;;;;3.13;2.83;;;;;;;;;;6250318;23;20138;-78